Airfield :
LOGIN :

Register | Disclaimer

   EN    FR    IT 

 










Legend :    VFR   Marginal VFR   IFR   Intensive IFR   Very Intensive IFR
Visi :
Ceiling :
>= 8 km
>= 3000ft
5 to 8 km
1000 to 3000 ft
1500m to 5 km
500 to 1000 ft
800 to 1500m
200 to 500 ft
< 800m
< 200 ft
Symbols :   Thunderstorms  Fog  Heavy snow  Heavy precipitations  Wind > 20 kt
SIGMETs :     Misc.  Thunderstorms  Icing  Turbulence  Mountain Waves  Volcanic Ashes






- Airport Elevation : 39 ft
- IATA code : ANR


EBAW - Anvers / Antwerpen Deurne

CURRENT METAR :
  • 040750Z 34011KT 9999 -RA FEW016 BKN038 13/10 Q0999 NOSIG

EXPIRED METARs :
  • 040720Z 35004KT 320V020 9999 FEW016 BKN037 13/11 Q0999 RERA NOSIG
  • 040650Z 34010KT 7000 -SHRA SCT016 BKN035 13/11 Q0999 TEMPO BKN013
  • 040620Z 34011KT 310V010 9999 BKN016 14/10 Q0999 TEMPO BKN013
  • 040550Z AUTO 34010KT 9999 // FEW017/// SCT019/// OVC024/// 14/10 Q0999
  • 040520Z AUTO 34008KT 9999 // OVC020/// 14/10 Q0999
  • 040450Z AUTO 35008KT 9999 // OVC015/// 14/11 Q0999

TAF TAF EBAW
Valid from the 04 at 06:00 until the 04 at 15:00 UTC


040520Z 0406/0415 33008KT 9999 BKN018
PROB40
TEMPO 0406/0407 BKN012
PROB40
TEMPO 0407/0414 4000 RA SHRA SCT010 BKN014TCU



MET'MAP, your aeronautical weather chart ! - Copyright ORBIFLY December 2007 - Disclaimer

ORBIFLY MET'MAP TEAM :

Programming & Development : Alexandra Zaïnal
Concept & original design : Baudouin d'Aumeries
Assistance for programming : Marc-Olivier Méhu
Technical & hardware support : Manuel Goepfert

Contact : metmap@orbifly.com




SOURCES & CREDITS :

   NOAA